Hundvaag 1 weather for Apr 2007
Month no. 238
Obs.
Da.
Temp. Dew Point Precip. Wind
Speed
Wind gusts Cloud cover Press. Humidity Wind dir. Sunny OPT
01.04.2007 3,8   0,0 4,8   10 1035,8 83,0 135,0 1 80,0 %
02.04.2007 5,0   0,0 3,2   10 1034,1 82,0 135,0 1 85,0 %
03.04.2007 3,2   0,0 6,4   7 1024,9 79,0 0,0 1 72,5 %
04.04.2007 5,4   0,0 1,6   1 1021,2 77,0 337,5   62,5 %
05.04.2007 6,8   0,0 17,7   1 1011,7 87,0 337,5   52,5 %
06.04.2007 1,3   0,0 4,8   1 1018,5 65,0 67,5   55,0 %
07.04.2007 3,5   0,6 3,2   1 1020,5 70,0 315,0   60,0 %
08.04.2007 2,3   2,5 3,2   1 1018,5 76,0 225,0 1 57,5 %
09.04.2007 6,5   31,0 12,9   6 1005,3 90,0 67,5 1 42,5 %
10.04.2007 6,6   1,3 4,8   1 1009,4 85,0 67,5   60,0 %
11.04.2007 6,9   5,3 17,7   0 1015,5 90,0 45,0 1 47,5 %
12.04.2007 7,9   0,5 4,8   2 1025,3 86,0 112,5 1 65,0 %
13.04.2007 13,9   0,0 3,2   10 1029,0 70,0 90,0 1 92,5 %
14.04.2007 9,8   0,0 8,0   6 1028,7 67,0 315,0 1 72,5 %
15.04.2007 8,2   0,0 4,8   10 1028,3 73,0 90,0 1 85,0 %
16.04.2007 9,6   0,0 16,1   1 1021,6 71,0 337,5 1 55,0 %
17.04.2007 5,3   1,0 12,9   4 1018,8 82,0 315,0 1 62,5 %
18.04.2007 3,3   0,8 6,4   2 1017,8 82,0 112,5 1 60,0 %
19.04.2007 6,6   11,6 19,3   0 1001,6 88,0 337,5   40,0 %
20.04.2007 1,1   3,5 19,3   9 1017,5 77,0 67,5 1 62,5 %
21.04.2007 2,1   0,0 1,6   10 1022,6 67,0 337,5 1 80,0 %
22.04.2007 7,3   9,5 27,4   1 1014,8 85,0 270,0   37,5 %
23.04.2007 8,9   7,5 1,6   0 1014,8 87,0 90,0   57,5 %
24.04.2007 11,8   0,4 19,3   0 1012,8 85,0 225,0 1 52,5 %
25.04.2007 12,1   4,5 17,7   1 1016,1 87,0 247,5   55,0 %
26.04.2007 10,4   1,1 14,5   7 1019,2 87,0 0,0 1 75,0 %
27.04.2007 7,5   0,0 17,7   8 1028,0 82,0 90,0 1 72,5 %
28.04.2007 7,6   0,0 3,2   8 1029,0 86,0 112,5 1 82,5 %
29.04.2007 7,9   0,1 9,7   10 1030,0 78,0 0,0 1 82,5 %
30.04.2007 7,7   0,0 9,7   1 1023,9 87,0 90,0   60,0 %
                       
Avrg/Sum 6,7   81,2 9,9   4,3 1020,5 80,4 165,8 20 64,2 %